Time;durP1;ratioP1;P1;durP2;ratioP2;P2;SDS_P1;SDS_P2;PMS_P1;PMS_P2;Temp;Humidity;BMP_temperature;BMP_pressure;BME280_temperature;BME280_humidity;BME280_pressure;Samples;Min_cycle;Max_cycle;Signal;HPM_P1;HPM_P2
2022/06/26 00:01:49;;;;;;;12.95;8.10;;;18.40;99.90;;;;;;4935753;28;207448;-71
2022/06/26 00:04:15;;;;;;;13.55;8.20;;;18.40;99.90;;;;;;4974950;28;244222;-71
2022/06/26 00:06:41;;;;;;;15.68;8.32;;;18.40;99.90;;;;;;4977479;28;208221;-71
2022/06/26 00:09:08;;;;;;;15.20;8.88;;;18.40;99.90;;;;;;4985797;28;266238;-71
2022/06/26 00:11:34;;;;;;;17.05;9.30;;;18.30;99.90;;;;;;4996844;28;205561;-70
2022/06/26 00:14:00;;;;;;;16.13;8.52;;;18.30;99.90;;;;;;5018827;28;20068;-71
2022/06/26 00:16:26;;;;;;;15.57;8.00;;;18.30;99.90;;;;;;4959443;28;210698;-71
2022/06/26 00:18:52;;;;;;;13.70;8.50;;;18.30;99.90;;;;;;5014178;28;20144;-70
2022/06/26 00:21:18;;;;;;;14.48;9.73;;;18.30;99.90;;;;;;4958067;28;206952;-70
2022/06/26 00:23:45;;;;;;;14.98;9.20;;;18.30;99.90;;;;;;5014492;28;20057;-70
2022/06/26 00:26:11;;;;;;;14.77;8.68;;;18.20;99.90;;;;;;4934996;28;206134;-71
2022/06/26 00:28:37;;;;;;;13.20;8.55;;;18.20;99.90;;;;;;5014244;28;20054;-71
2022/06/26 00:31:03;;;;;;;14.13;9.02;;;18.20;99.90;;;;;;4969431;28;260796;-69
2022/06/26 00:33:29;;;;;;;15.25;9.60;;;18.20;99.90;;;;;;5022838;28;20061;-71
2022/06/26 00:35:55;;;;;;;12.63;8.02;;;18.20;99.90;;;;;;4972060;28;207294;-71
2022/06/26 00:38:21;;;;;;;16.27;10.40;;;18.30;99.90;;;;;;5033197;28;20141;-71
2022/06/26 00:40:48;;;;;;;24.90;11.23;;;18.30;99.90;;;;;;4950644;28;211132;-71
2022/06/26 00:43:14;;;;;;;14.45;8.23;;;18.30;99.90;;;;;;5036840;28;20060;-71
2022/06/26 00:45:40;;;;;;;16.20;9.02;;;18.30;99.90;;;;;;4950423;28;250857;-71
2022/06/26 00:48:06;;;;;;;13.20;8.50;;;18.30;99.90;;;;;;5025288;28;20057;-71
2022/06/26 00:50:33;;;;;;;14.13;9.77;;;18.30;99.90;;;;;;4964616;28;208844;-70
2022/06/26 00:52:59;;;;;;;14.57;9.43;;;18.40;99.90;;;;;;5018130;28;20072;-71
2022/06/26 00:55:25;;;;;;;15.13;8.70;;;18.40;99.90;;;;;;4977734;28;267207;-71
2022/06/26 00:57:52;;;;;;;15.88;9.73;;;18.40;99.90;;;;;;5031380;28;20482;-70
2022/06/26 01:00:20;;;;;;;17.10;10.77;;;18.40;99.90;;;;;;4959239;28;209796;-70
2022/06/26 01:02:47;;;;;;;19.90;11.45;;;18.50;99.90;;;;;;5026968;28;20125;-70
2022/06/26 01:05:13;;;;;;;19.95;12.27;;;18.30;99.90;;;;;;4997354;28;113569;-68
2022/06/26 01:07:40;;;;;;;15.80;10.10;;;18.20;99.90;;;;;;5006177;28;125106;-70
2022/06/26 01:10:07;;;;;;;14.07;8.85;;;18.20;99.90;;;;;;5003929;28;247514;-70
2022/06/26 01:12:33;;;;;;;15.43;9.88;;;18.40;99.90;;;;;;4988957;28;233547;-70
2022/06/26 01:15:00;;;;;;;16.45;10.43;;;18.70;99.90;;;;;;5009055;28;101414;-70
2022/06/26 01:17:27;;;;;;;15.93;11.02;;;18.80;99.90;;;;;;4935716;28;212052;-70
2022/06/26 01:19:54;;;;;;;15.52;10.27;;;18.70;99.90;;;;;;4989944;28;273670;-70
2022/06/26 01:22:20;;;;;;;18.00;10.82;;;18.70;99.90;;;;;;4969573;28;210113;-70
2022/06/26 01:24:48;;;;;;;18.08;10.80;;;18.70;99.90;;;;;;5008371;28;256272;-70
2022/06/26 01:27:14;;;;;;;17.13;10.10;;;18.60;99.90;;;;;;4990126;28;206695;-69
2022/06/26 01:29:40;;;;;;;16.58;10.15;;;18.60;99.90;;;;;;5011978;28;261758;-70
2022/06/26 01:32:07;;;;;;;17.77;10.30;;;18.50;99.90;;;;;;4967517;28;219920;-70
2022/06/26 01:34:33;;;;;;;16.52;10.07;;;18.50;99.90;;;;;;4993177;28;113724;-70
2022/06/26 01:37:00;;;;;;;17.42;10.60;;;18.50;99.90;;;;;;4956017;28;204281;-70
2022/06/26 01:39:27;;;;;;;17.65;10.63;;;18.40;99.90;;;;;;5007039;28;278011;-70
2022/06/26 01:41:53;;;;;;;17.17;10.35;;;18.40;99.90;;;;;;4968805;28;206932;-70
2022/06/26 01:44:19;;;;;;;16.15;9.98;;;18.40;99.90;;;;;;5009786;28;268105;-70
2022/06/26 01:46:45;;;;;;;17.27;11.23;;;18.40;99.90;;;;;;4973864;28;214800;-71
2022/06/26 01:49:12;;;;;;;20.02;10.07;;;18.40;99.90;;;;;;5005171;28;254441;-70
2022/06/26 01:51:38;;;;;;;17.38;10.60;;;18.30;99.90;;;;;;4973627;28;185092;-70
2022/06/26 01:54:05;;;;;;;21.23;11.02;;;18.40;99.90;;;;;;5028136;28;20048;-70
2022/06/26 01:56:31;;;;;;;17.63;10.32;;;18.40;99.90;;;;;;4968761;28;206809;-71
2022/06/26 01:58:57;;;;;;;20.08;10.40;;;18.40;99.90;;;;;;5022944;28;20060;-70
2022/06/26 02:01:23;;;;;;;17.55;10.10;;;18.40;99.90;;;;;;4970752;28;206183;-71
2022/06/26 02:03:49;;;;;;;16.70;11.07;;;18.40;99.90;;;;;;5042491;28;20060;-71
2022/06/26 02:06:15;;;;;;;18.17;11.25;;;18.40;99.90;;;;;;4949563;28;204494;-71
2022/06/26 02:08:41;;;;;;;18.02;9.90;;;18.40;99.90;;;;;;5017882;28;20057;-71
2022/06/26 02:13:54;;;;;;;17.45;9.82;;;18.40;99.90;;;;;;5033963;28;20049;-71
2022/06/26 02:16:23;;;;;;;19.25;10.15;;;18.40;99.90;;;;;;4974044;28;187369;-71
2022/06/26 02:18:53;;;;;;;17.40;9.88;;;18.40;99.90;;;;;;5023977;28;20053;-71
2022/06/26 02:21:21;;;;;;;17.17;10.50;;;18.40;99.90;;;;;;4988807;28;206020;-72
2022/06/26 02:23:50;;;;;;;17.52;10.30;;;18.40;99.90;;;;;;5006156;28;20065;-72
2022/06/26 02:26:17;;;;;;;22.48;11.45;;;18.30;99.90;;;;;;4964451;28;210115;-73
2022/06/26 02:28:44;;;;;;;17.95;11.00;;;18.30;99.90;;;;;;5024940;28;20057;-75
2022/06/26 02:31:10;;;;;;;18.10;10.10;;;18.30;99.90;;;;;;4959197;28;209105;-75
2022/06/26 02:33:38;;;;;;;18.75;10.70;;;18.10;99.90;;;;;;5034029;28;20060;-75
2022/06/26 02:36:06;;;;;;;18.48;9.98;;;18.10;99.90;;;;;;4962279;28;212563;-74
2022/06/26 02:38:34;;;;;;;17.75;8.32;;;18.00;99.90;;;;;;5022418;28;20383;-75
2022/06/26 02:41:00;;;;;;;14.38;7.72;;;18.00;99.90;;;;;;4961093;28;208679;-74
2022/06/26 02:43:26;;;;;;;15.13;8.02;;;17.90;99.90;;;;;;5016395;28;20050;-76
2022/06/26 02:45:55;;;;;;;14.80;7.40;;;17.80;99.90;;;;;;4971860;28;268309;-74
2022/06/26 02:48:21;;;;;;;19.70;8.55;;;17.80;99.90;;;;;;5035527;28;20053;-74
2022/06/26 02:50:48;;;;;;;15.63;7.97;;;17.80;99.90;;;;;;4968756;28;206006;-74
2022/06/26 02:53:15;;;;;;;16.52;7.82;;;17.80;99.90;;;;;;5033916;28;20147;-74
2022/06/26 02:55:41;;;;;;;18.88;8.32;;;17.70;99.90;;;;;;4964259;28;207076;-74
2022/06/26 02:58:07;;;;;;;14.10;7.88;;;17.70;99.90;;;;;;5011871;28;20522;-74
2022/06/26 03:00:34;;;;;;;14.63;7.68;;;17.70;99.90;;;;;;4968662;28;220648;-74
2022/06/26 03:03:01;;;;;;;15.40;8.13;;;17.70;99.90;;;;;;5017148;28;20164;-72
2022/06/26 03:05:51;;;;;;;14.15;8.30;;;17.60;99.90;;;;;;4277578;23;10004770;-85
2022/06/26 03:18:50;;;;;;;12.00;6.70;;;17.50;99.90;;;;;;4982624;23;208085;-75
2022/06/26 03:21:17;;;;;;;15.18;7.10;;;17.50;99.90;;;;;;4907559;28;212389;-74
2022/06/26 03:24:01;;;;;;;11.50;7.00;;;17.40;99.90;;;;;;4994715;28;20049;-75
2022/06/26 03:26:35;;;;;;;12.40;6.68;;;17.40;99.90;;;;;;4943750;28;254192;-75
2022/06/26 03:29:03;;;;;;;13.07;6.25;;;17.40;99.90;;;;;;5005275;28;20092;-75
2022/06/26 03:31:29;;;;;;;11.27;5.63;;;17.30;99.90;;;;;;4905337;28;252885;-75
2022/06/26 03:33:55;;;;;;;10.48;5.60;;;17.30;99.90;;;;;;5000783;28;20605;-75
2022/06/26 03:36:23;;;;;;;11.00;4.80;;;17.30;99.90;;;;;;4925886;28;208981;-74
2022/06/26 03:38:50;;;;;;;11.30;4.65;;;17.30;99.90;;;;;;4981412;28;20055;-74
2022/06/26 03:41:16;;;;;;;10.68;4.60;;;17.20;99.90;;;;;;4943408;28;205634;-73
2022/06/26 03:43:43;;;;;;;10.73;4.57;;;17.20;99.90;;;;;;4988567;28;20495;-74
2022/06/26 03:46:09;;;;;;;9.90;4.07;;;17.20;99.90;;;;;;4948923;28;265700;-74
2022/06/26 03:48:35;;;;;;;10.27;4.28;;;17.20;99.90;;;;;;4996148;28;20061;-74
2022/06/26 03:51:01;;;;;;;10.18;3.90;;;17.10;99.90;;;;;;4930060;28;227215;-74
2022/06/26 03:53:28;;;;;;;11.50;3.72;;;17.10;99.90;;;;;;5005334;28;20049;-74
2022/06/26 03:55:54;;;;;;;9.70;3.53;;;17.10;99.90;;;;;;4961259;28;265449;-73
2022/06/26 03:58:20;;;;;;;9.40;3.72;;;17.10;99.90;;;;;;5003441;28;20050;-73
2022/06/26 04:00:47;;;;;;;9.98;3.72;;;17.00;99.90;;;;;;4943094;28;257898;-73
2022/06/26 04:03:13;;;;;;;8.65;3.67;;;17.00;99.90;;;;;;5002775;28;20396;-74
2022/06/26 04:05:39;;;;;;;10.18;3.50;;;17.00;99.90;;;;;;4922272;28;271614;-74
2022/06/26 04:08:06;;;;;;;9.80;3.63;;;17.00;99.90;;;;;;4990719;28;20054;-73
2022/06/26 04:10:33;;;;;;;9.60;3.50;;;17.00;99.90;;;;;;4935876;28;256537;-73
2022/06/26 04:13:01;;;;;;;8.30;3.40;;;16.90;99.90;;;;;;4971581;28;20079;-74
2022/06/26 04:15:29;;;;;;;8.60;3.73;;;16.90;99.90;;;;;;4950699;28;216269;-74
2022/06/26 04:17:55;;;;;;;8.25;3.53;;;17.00;99.90;;;;;;4986862;28;20058;-74
2022/06/26 04:20:21;;;;;;;10.10;3.60;;;17.00;99.90;;;;;;4948211;28;263979;-73
2022/06/26 04:22:58;;;;;;;9.07;3.15;;;17.00;99.90;;;;;;4993993;28;20047;-74
2022/06/26 04:25:25;;;;;;;7.30;3.20;;;17.10;99.90;;;;;;4933084;28;215536;-73
2022/06/26 04:27:52;;;;;;;8.00;3.20;;;17.10;99.90;;;;;;4983137;28;20050;-73
2022/06/26 04:30:18;;;;;;;8.55;3.30;;;17.10;99.90;;;;;;4957608;28;262895;-71
2022/06/26 04:32:45;;;;;;;10.82;3.40;;;17.10;99.90;;;;;;5001574;28;20054;-73
2022/06/26 04:35:11;;;;;;;8.65;3.20;;;17.20;99.90;;;;;;4986255;28;251465;-73
2022/06/26 04:37:38;;;;;;;8.95;3.50;;;17.10;99.90;;;;;;4933314;28;208420;-73
2022/06/26 04:40:05;;;;;;;8.00;3.33;;;17.10;99.90;;;;;;4993703;28;251154;-73
2022/06/26 04:42:32;;;;;;;7.82;3.45;;;17.20;99.90;;;;;;4949301;28;151951;-74
2022/06/26 04:44:58;;;;;;;10.45;3.90;;;17.10;99.90;;;;;;4985511;28;277034;-74
2022/06/26 04:47:24;;;;;;;9.93;4.10;;;17.20;99.90;;;;;;4942133;28;210083;-74
2022/06/26 04:49:50;;;;;;;8.52;3.40;;;17.10;99.90;;;;;;4992208;28;265427;-73
2022/06/26 04:52:16;;;;;;;8.70;3.70;;;17.10;99.90;;;;;;4946113;28;206953;-74
2022/06/26 04:54:43;;;;;;;8.50;3.92;;;17.20;99.90;;;;;;4988916;28;102349;-73
2022/06/26 04:57:10;;;;;;;11.68;3.67;;;17.20;99.90;;;;;;4927640;28;210221;-73
2022/06/26 04:59:37;;;;;;;10.65;4.00;;;17.20;99.90;;;;;;4987321;28;269806;-73
2022/06/26 05:02:04;;;;;;;8.48;3.80;;;17.20;99.90;;;;;;4943455;28;219277;-73
2022/06/26 05:04:30;;;;;;;10.82;4.30;;;17.30;99.90;;;;;;4975755;28;163266;-73
2022/06/26 05:06:57;;;;;;;9.65;4.28;;;17.40;99.90;;;;;;4943407;28;175091;-74
2022/06/26 05:09:24;;;;;;;9.43;4.13;;;17.50;99.90;;;;;;4962775;28;250409;-74
2022/06/26 05:11:50;;;;;;;9.68;4.72;;;17.50;99.90;;;;;;4932134;28;212771;-74
2022/06/26 05:14:18;;;;;;;10.07;4.70;;;17.60;99.90;;;;;;4982259;28;249188;-74
2022/06/26 05:16:44;;;;;;;11.68;4.72;;;17.60;99.90;;;;;;4936040;28;212535;-74
2022/06/26 05:19:12;;;;;;;10.73;4.70;;;17.60;99.90;;;;;;4994452;28;261612;-73
2022/06/26 05:21:38;;;;;;;10.90;4.85;;;17.70;99.90;;;;;;4942396;28;226158;-74
2022/06/26 05:24:05;;;;;;;11.75;5.25;;;17.70;99.90;;;;;;4985624;28;20343;-74
2022/06/26 05:26:31;;;;;;;10.57;5.68;;;17.70;99.90;;;;;;4954481;28;258971;-73
2022/06/26 05:28:58;;;;;;;11.43;6.13;;;17.70;99.90;;;;;;5024883;28;20058;-75
2022/06/26 05:31:25;;;;;;;11.68;5.97;;;17.70;99.90;;;;;;4946968;28;210763;-73
2022/06/26 05:33:51;;;;;;;10.68;6.03;;;17.70;99.90;;;;;;5024319;28;20046;-74
2022/06/26 05:36:17;;;;;;;11.95;6.82;;;17.70;99.90;;;;;;4960478;28;208403;-74
2022/06/26 05:38:45;;;;;;;11.43;6.70;;;17.70;99.90;;;;;;5008519;28;20057;-74
2022/06/26 05:41:11;;;;;;;14.55;6.88;;;17.70;99.90;;;;;;4924965;28;224514;-73
2022/06/26 05:43:38;;;;;;;12.75;7.55;;;17.70;99.90;;;;;;4972671;28;20057;-74
2022/06/26 05:46:04;;;;;;;12.27;7.63;;;17.70;99.90;;;;;;4944235;28;210692;-73
2022/06/26 05:48:30;;;;;;;13.55;7.40;;;17.70;99.90;;;;;;5005855;28;20046;-73
2022/06/26 05:50:56;;;;;;;12.07;7.93;;;17.70;99.90;;;;;;4945656;28;241732;-73
2022/06/26 05:53:22;;;;;;;13.52;8.07;;;17.70;99.90;;;;;;5004087;28;20050;-74
2022/06/26 05:55:49;;;;;;;15.55;8.25;;;17.70;99.90;;;;;;4928537;28;214513;-74
2022/06/26 05:58:15;;;;;;;11.95;8.15;;;17.70;99.90;;;;;;5006957;28;20419;-74
2022/06/26 06:00:42;;;;;;;13.77;9.10;;;17.70;99.90;;;;;;4938502;28;206128;-74
2022/06/26 06:03:08;;;;;;;14.07;9.13;;;17.80;99.90;;;;;;4995747;28;20054;-74
2022/06/26 06:05:35;;;;;;;14.40;9.63;;;17.80;99.90;;;;;;4923139;28;259947;-74
2022/06/26 06:08:02;;;;;;;14.77;9.85;;;17.80;99.90;;;;;;4993063;28;20073;-73
2022/06/26 06:10:29;;;;;;;14.60;9.97;;;17.80;99.90;;;;;;4952847;28;272488;-73
2022/06/26 06:12:56;;;;;;;16.30;10.40;;;17.80;99.90;;;;;;4999230;28;20057;-76
2022/06/26 06:15:22;;;;;;;15.63;10.85;;;17.80;99.90;;;;;;4949031;28;217675;-74
2022/06/26 06:17:49;;;;;;;18.17;13.05;;;17.90;99.90;;;;;;5022383;28;20093;-74
2022/06/26 06:20:18;;;;;;;16.17;12.75;;;17.90;99.90;;;;;;4977252;28;260448;-73
2022/06/26 06:22:46;;;;;;;18.30;13.77;;;18.00;99.90;;;;;;4934168;28;205233;-73
2022/06/26 06:25:12;;;;;;;20.27;13.95;;;18.00;99.90;;;;;;5008516;28;254129;-73
2022/06/26 06:27:39;;;;;;;19.17;13.82;;;18.10;99.90;;;;;;4960027;28;213964;-74
2022/06/26 06:30:08;;;;;;;17.60;14.23;;;18.20;99.90;;;;;;5012846;28;158989;-73
2022/06/26 06:32:34;;;;;;;19.30;14.38;;;18.20;99.90;;;;;;4960907;28;153198;-73
2022/06/26 06:35:01;;;;;;;18.92;14.55;;;18.20;99.90;;;;;;5000572;28;107295;-74
2022/06/26 06:37:27;;;;;;;19.45;14.05;;;18.30;99.90;;;;;;4944814;28;213048;-74
2022/06/26 06:39:54;;;;;;;18.48;14.63;;;18.40;99.90;;;;;;4992320;28;182015;-73
2022/06/26 06:42:20;;;;;;;19.65;14.32;;;18.50;99.90;;;;;;4951261;28;206299;-73
2022/06/26 06:44:46;;;;;;;20.30;14.32;;;18.50;99.90;;;;;;4977022;28;192134;-73
2022/06/26 06:47:12;;;;;;;18.30;14.88;;;18.50;99.90;;;;;;4949437;28;251102;-73
2022/06/26 06:49:40;;;;;;;21.40;14.85;;;18.50;99.90;;;;;;4996697;28;263190;-74
2022/06/26 06:52:07;;;;;;;18.02;14.10;;;18.50;99.90;;;;;;4936345;28;212370;-74
2022/06/26 06:54:33;;;;;;;18.30;14.35;;;18.60;99.90;;;;;;4999552;28;20068;-74
2022/06/26 06:56:59;;;;;;;20.38;14.70;;;18.60;99.90;;;;;;4953680;28;194869;-72
2022/06/26 06:59:26;;;;;;;18.73;14.23;;;18.60;99.90;;;;;;4987565;28;264491;-74
2022/06/26 07:01:52;;;;;;;18.65;14.10;;;18.70;99.90;;;;;;4955175;28;206358;-74
2022/06/26 07:04:19;;;;;;;20.05;14.50;;;18.90;99.90;;;;;;4976674;28;264510;-74
2022/06/26 07:06:45;;;;;;;18.60;14.63;;;19.20;99.90;;;;;;4940872;28;210355;-75
2022/06/26 07:09:12;;;;;;;18.45;14.05;;;19.40;99.90;;;;;;4992630;28;236635;-72
2022/06/26 07:11:38;;;;;;;17.58;13.98;;;19.50;99.90;;;;;;4970032;28;212301;-73
2022/06/26 07:14:05;;;;;;;21.20;16.20;;;19.50;99.90;;;;;;5022288;28;20058;-73
2022/06/26 07:16:31;;;;;;;20.15;14.55;;;19.40;99.90;;;;;;4949202;28;223466;-72
2022/06/26 07:18:57;;;;;;;19.35;14.57;;;19.40;99.90;;;;;;5007308;28;20061;-73
2022/06/26 07:21:24;;;;;;;19.83;14.60;;;19.30;99.90;;;;;;4919866;28;240949;-74
2022/06/26 07:23:51;;;;;;;22.13;15.32;;;19.40;99.90;;;;;;4998063;28;20053;-73
2022/06/26 07:26:17;;;;;;;20.58;15.35;;;19.50;99.90;;;;;;4951214;28;268714;-73
2022/06/26 07:28:44;;;;;;;18.88;15.05;;;19.50;99.90;;;;;;5002970;28;20048;-73
2022/06/26 07:31:10;;;;;;;19.80;15.38;;;19.40;99.90;;;;;;4946238;28;208274;-73
2022/06/26 07:36:21;;;;;;;23.02;15.50;;;19.40;99.90;;;;;;4943620;28;220239;-72
2022/06/26 07:38:48;;;;;;;19.27;15.77;;;19.60;99.90;;;;;;5003721;28;20053;-73
2022/06/26 07:41:14;;;;;;;20.75;15.85;;;19.60;99.90;;;;;;4914309;28;164320;-73
2022/06/26 07:43:40;;;;;;;19.65;14.63;;;19.70;99.90;;;;;;4991322;28;20058;-73
2022/06/26 07:46:07;;;;;;;19.85;14.82;;;20.10;99.90;;;;;;4937749;28;269274;-69
2022/06/26 07:48:33;;;;;;;20.30;15.13;;;20.40;99.90;;;;;;5015601;28;20052;-76
2022/06/26 07:51:00;;;;;;;17.92;13.88;;;20.70;99.90;;;;;;4936863;28;268280;-75
2022/06/26 07:53:27;;;;;;;20.15;13.73;;;20.90;99.90;;;;;;5003262;28;20069;-74
2022/06/26 07:55:53;;;;;;;19.08;13.20;;;21.00;99.90;;;;;;4945506;28;200541;-74
2022/06/26 07:58:19;;;;;;;16.60;12.73;;;21.20;99.90;;;;;;4997547;28;20065;-75
2022/06/26 08:00:46;;;;;;;16.23;12.15;;;21.50;99.90;;;;;;4956305;28;259104;-75
2022/06/26 08:03:15;;;;;;;15.60;11.57;;;21.70;99.90;;;;;;5009451;28;20060;-76
2022/06/26 08:05:43;;;;;;;16.20;11.32;;;21.90;99.90;;;;;;4947032;28;243203;-74
2022/06/26 08:08:10;;;;;;;13.88;10.27;;;22.30;99.90;;;;;;4984578;28;20057;-74
2022/06/26 08:10:36;;;;;;;15.82;9.48;;;22.60;99.90;;;;;;4944161;28;279824;-75
2022/06/26 08:13:04;;;;;;;13.52;8.57;;;23.00;99.90;;;;;;4961984;28;20132;-74
2022/06/26 08:15:30;;;;;;;13.45;8.35;;;22.70;99.90;;;;;;4910830;28;205679;-74
2022/06/26 08:17:56;;;;;;;13.50;8.85;;;22.30;99.90;;;;;;4997318;28;20061;-74
2022/06/26 08:20:23;;;;;;;12.27;8.52;;;22.20;99.90;;;;;;4943231;28;205672;-74
2022/06/26 08:22:49;;;;;;;14.05;7.38;;;22.00;99.90;;;;;;4985424;28;20049;-74
2022/06/26 08:25:15;;;;;;;14.68;7.13;;;22.10;99.90;;;;;;4974479;28;189399;-73
2022/06/26 08:27:42;;;;;;;13.75;7.60;;;22.10;99.90;;;;;;4961627;28;78565;-74
2022/06/26 08:30:09;;;;;;;12.98;6.88;;;22.40;99.90;;;;;;5024413;28;38958;-74
2022/06/26 08:32:38;;;;;;;13.15;6.43;;;22.70;99.90;;;;;;4965298;28;206263;-73
2022/06/26 08:35:08;;;;;;;10.00;5.53;;;23.10;99.90;;;;;;5002162;28;53075;-73
2022/06/26 08:37:35;;;;;;;11.18;4.47;;;23.30;99.90;;;;;;4944504;28;206394;-74
2022/06/26 08:40:01;;;;;;;10.13;4.40;;;23.20;99.90;;;;;;5015691;28;233558;-71
2022/06/26 08:42:29;;;;;;;10.75;4.30;;;23.10;99.90;;;;;;4972469;28;206907;-72
2022/06/26 08:44:57;;;;;;;10.27;4.35;;;23.00;99.90;;;;;;5001290;28;58229;-72
2022/06/26 08:47:25;;;;;;;9.10;3.72;;;23.10;99.90;;;;;;4953731;28;211641;-72
2022/06/26 08:49:52;;;;;;;8.27;3.20;;;23.40;99.90;;;;;;4986416;28;220830;-71
2022/06/26 08:52:21;;;;;;;7.97;2.90;;;23.70;99.90;;;;;;4939407;28;242101;-72
2022/06/26 08:54:49;;;;;;;8.80;3.20;;;23.70;99.90;;;;;;4996618;28;104915;-72
2022/06/26 08:57:15;;;;;;;8.90;2.63;;;23.50;99.90;;;;;;4968845;28;205936;-72
2022/06/26 08:59:42;;;;;;;8.00;2.67;;;23.50;99.90;;;;;;4995404;28;239270;-73
2022/06/26 09:02:09;;;;;;;7.90;2.30;;;23.50;97.30;;;;;;4943974;28;206500;-72
2022/06/26 09:04:37;;;;;;;9.98;3.10;;;23.50;99.80;;;;;;4976055;28;233153;-71
2022/06/26 09:07:06;;;;;;;8.07;2.80;;;23.80;99.90;;;;;;4955567;28;235099;-73
2022/06/26 09:09:37;;;;;;;7.35;2.80;;;23.80;99.90;;;;;;4987749;28;206858;-72
2022/06/26 09:12:04;;;;;;;8.45;2.50;;;23.70;99.90;;;;;;4950588;28;213223;-71
2022/06/26 09:14:30;;;;;;;8.85;3.10;;;23.50;99.90;;;;;;5018749;28;159586;-73
2022/06/26 09:19:33;;;;;;;9.90;3.38;;;23.30;99.90;;;;;;4986175;28;261562;-74
2022/06/26 09:22:11;;;;;;;8.57;3.08;;;23.50;99.90;;;;;;4958329;28;231259;-75
2022/06/26 09:24:39;;;;;;;8.60;2.90;;;23.90;99.90;;;;;;4992447;28;28421;-75
2022/06/26 09:27:13;;;;;;;7.90;2.60;;;24.10;99.90;;;;;;4942500;28;205937;-75
2022/06/26 09:29:40;;;;;;;8.07;2.47;;;24.60;98.20;;;;;;4970398;28;259336;-75
2022/06/26 09:32:12;;;;;;;8.02;2.55;;;24.70;98.10;;;;;;4960166;28;209385;-75
2022/06/26 09:34:47;;;;;;;8.18;2.53;;;24.70;99.30;;;;;;4972645;28;269773;-75
2022/06/26 09:37:13;;;;;;;8.57;2.88;;;24.60;99.30;;;;;;4951988;28;216105;-75
2022/06/26 09:39:40;;;;;;;9.73;3.10;;;24.70;99.20;;;;;;4977912;28;248974;-75
2022/06/26 09:42:27;;;;;;;8.30;2.78;;;24.50;98.00;;;;;;4960121;28;147793;-74
2022/06/26 09:44:54;;;;;;;9.32;2.70;;;24.50;97.30;;;;;;4974457;28;257302;-77
2022/06/26 09:47:32;;;;;;;8.43;2.92;;;24.60;98.90;;;;;;4967006;28;214678;-79
2022/06/26 09:50:01;;;;;;;8.65;2.88;;;24.60;97.30;;;;;;4987967;28;21414;-79
2022/06/26 09:52:29;;;;;;;8.27;3.00;;;24.50;97.90;;;;;;4920008;28;210620;-79
2022/06/26 09:54:57;;;;;;;10.05;2.95;;;24.50;97.70;;;;;;4983658;28;49955;-79
2022/06/26 09:57:26;;;;;;;8.48;2.95;;;24.60;97.90;;;;;;4966013;28;207018;-82
2022/06/26 09:59:53;;;;;;;9.02;2.83;;;24.60;97.80;;;;;;4988963;28;41886;-81
2022/06/26 10:08:06;;;;;;;9.75;3.03;;;24.80;96.40;;;;;;4933933;28;203319;-80
2022/06/26 10:10:33;;;;;;;8.10;2.80;;;24.80;95.80;;;;;;4941060;28;185205;-81
2022/06/26 10:13:09;;;;;;;7.28;2.67;;;24.90;97.20;;;;;;4989008;28;20463;-80
2022/06/26 10:15:40;;;;;;;8.93;2.20;;;25.00;93.70;;;;;;4928622;28;205791;-81
2022/06/26 10:18:39;;;;;;;7.57;2.33;;;25.10;96.40;;;;;;4950296;28;20062;-81
2022/06/26 10:21:08;;;;;;;7.28;1.90;;;25.20;95.70;;;;;;4949217;28;206384;-81
2022/06/26 10:23:38;;;;;;;8.40;2.47;;;25.30;94.70;;;;;;5013705;28;20057;-81
2022/06/26 10:26:20;;;;;;;;;;;25.30;94.40;;;;;;4956447;28;215626;-81
2022/06/26 10:29:03;;;;;;;7.05;2.28;;;25.10;91.60;;;;;;5031255;28;20397;-81
2022/06/26 10:31:47;;;;;;;11.25;2.65;;;25.00;92.30;;;;;;4964160;28;145542;-80
2022/06/26 10:34:25;;;;;;;9.57;2.42;;;24.70;94.90;;;;;;4995152;28;102477;-81
2022/06/26 10:37:13;;;;;;;7.50;2.30;;;24.50;94.70;;;;;;4958324;28;217172;-81
2022/06/26 10:39:41;;;;;;;9.05;2.15;;;24.30;89.80;;;;;;4992286;28;242297;-81
2022/06/26 10:45:14;;;;;;;8.18;2.60;;;24.20;92.60;;;;;;4988188;28;212387;-79
2022/06/26 10:47:41;;;;;;;9.18;2.50;;;24.20;93.30;;;;;;4980850;28;155821;-82
2022/06/26 10:50:22;;;;;;;9.25;2.90;;;24.10;92.90;;;;;;5000190;28;103427;-81
2022/06/26 10:52:49;;;;;;;8.77;2.40;;;24.00;92.70;;;;;;4932629;28;203009;-79
2022/06/26 10:55:16;;;;;;;8.65;2.53;;;23.80;93.30;;;;;;4976611;28;212732;-76
2022/06/26 10:57:43;;;;;;;8.20;2.30;;;23.80;93.00;;;;;;4939790;28;201859;-75
2022/06/26 11:00:12;;;;;;;9.55;2.25;;;23.80;94.20;;;;;;4959716;28;20062;-75
2022/06/26 11:02:41;;;;;;;9.00;2.10;;;23.80;93.40;;;;;;4960903;28;206990;-76
2022/06/26 11:05:09;;;;;;;7.82;2.00;;;23.80;93.70;;;;;;4952240;28;189543;-78
2022/06/26 11:07:53;;;;;;;7.68;2.10;;;23.80;93.70;;;;;;4949655;28;205744;-75
2022/06/26 11:10:23;;;;;;;7.30;1.92;;;23.90;92.70;;;;;;4957231;28;242261;-75
2022/06/26 11:12:51;;;;;;;7.43;1.90;;;24.10;93.00;;;;;;4991799;28;20424;-76
2022/06/26 11:15:26;;;;;;;6.93;1.95;;;24.50;92.70;;;;;;4960697;28;137421;-78
2022/06/26 11:18:01;;;;;;;6.88;1.80;;;24.90;92.10;;;;;;4976250;28;206587;-77
2022/06/26 11:20:47;;;;;;;8.25;2.10;;;25.20;92.40;;;;;;4949714;28;266867;-77
2022/06/26 11:23:16;;;;;;;7.38;1.80;;;25.40;88.90;;;;;;4955613;28;20058;-77
2022/06/26 11:25:43;;;;;;;7.13;2.05;;;25.20;87.00;;;;;;4937844;28;212235;-76
2022/06/26 11:28:10;;;;;;;8.07;2.10;;;24.90;90.00;;;;;;4961457;28;20133;-76
2022/06/26 11:30:41;;;;;;;7.50;2.25;;;24.60;89.50;;;;;;4943333;28;235981;-78
2022/06/26 11:33:09;;;;;;;7.63;2.35;;;24.30;90.20;;;;;;4962298;28;20152;-75
2022/06/26 11:35:35;;;;;;;7.63;2.22;;;24.20;90.70;;;;;;4939772;28;266768;-75
2022/06/26 11:38:13;;;;;;;8.40;2.47;;;24.20;91.40;;;;;;4962649;28;20062;-75
2022/06/26 11:40:40;;;;;;;10.30;2.28;;;24.30;92.00;;;;;;4970159;28;243128;-75
2022/06/26 11:43:07;;;;;;;9.23;2.30;;;24.50;92.80;;;;;;5015889;28;20050;-76
2022/06/26 11:45:34;;;;;;;8.30;2.25;;;24.70;92.70;;;;;;4955169;28;137088;-76
2022/06/26 11:48:02;;;;;;;8.63;2.28;;;24.60;91.70;;;;;;5002516;28;20058;-77
2022/06/26 11:50:33;;;;;;;8.55;2.30;;;24.60;90.90;;;;;;4960361;28;219958;-77
2022/06/26 11:53:00;;;;;;;8.15;2.20;;;24.50;90.90;;;;;;5004742;28;20058;-77
2022/06/26 11:55:26;;;;;;;8.43;1.90;;;24.50;91.00;;;;;;4960231;28;263177;-77
2022/06/26 11:57:57;;;;;;;7.93;2.30;;;24.40;89.70;;;;;;4990969;28;20053;-77
2022/06/26 12:00:24;;;;;;;8.50;2.28;;;24.20;91.00;;;;;;4965788;28;251264;-76
2022/06/26 12:02:50;;;;;;;8.77;2.15;;;24.40;92.20;;;;;;4993245;28;20100;-76
2022/06/26 12:05:25;;;;;;;8.65;2.40;;;24.50;91.30;;;;;;4946151;28;205363;-75
2022/06/26 12:07:53;;;;;;;9.18;2.40;;;24.50;91.10;;;;;;4972283;28;204161;-76
2022/06/26 12:10:35;;;;;;;10.93;2.30;;;24.60;91.70;;;;;;4939013;28;229148;-76
2022/06/26 12:13:01;;;;;;;7.57;2.10;;;24.70;89.50;;;;;;4969309;28;20069;-77
2022/06/26 12:15:36;;;;;;;7.45;2.25;;;24.60;87.50;;;;;;4937049;28;211694;-76
2022/06/26 12:18:05;;;;;;;10.05;2.30;;;24.60;89.60;;;;;;4969855;28;20081;-78
2022/06/26 12:20:50;;;;;;;8.48;2.10;;;24.70;90.60;;;;;;4932443;28;253537;-78
2022/06/26 12:23:17;;;;;;;8.20;2.20;;;24.90;89.00;;;;;;4965976;28;20054;-76
2022/06/26 12:25:45;;;;;;;9.27;2.22;;;25.00;89.90;;;;;;4941954;28;207191;-78
2022/06/26 12:28:23;;;;;;;8.07;2.25;;;25.00;88.60;;;;;;4985100;28;20069;-76
2022/06/26 12:30:50;;;;;;;7.88;2.13;;;24.70;84.30;;;;;;4946094;28;216545;-76
2022/06/26 12:33:18;;;;;;;9.43;2.42;;;24.60;87.40;;;;;;5003320;28;20053;-76
2022/06/26 12:35:44;;;;;;;7.95;2.20;;;24.30;85.30;;;;;;4942291;28;128300;-76
2022/06/26 12:38:10;;;;;;;7.82;2.05;;;24.00;87.60;;;;;;4973622;28;20061;-76
2022/06/26 12:40:36;;;;;;;7.87;2.13;;;23.90;88.80;;;;;;4926840;28;197599;-76
2022/06/26 12:43:04;;;;;;;8.82;2.35;;;23.90;88.70;;;;;;4983443;28;20066;-77
2022/06/26 12:45:30;;;;;;;10.85;2.20;;;23.90;88.00;;;;;;4922376;28;227945;-77
2022/06/26 12:47:56;;;;;;;7.95;2.13;;;23.80;88.40;;;;;;4985872;28;20050;-77
2022/06/26 12:50:23;;;;;;;8.55;2.15;;;23.80;88.30;;;;;;4930695;28;206832;-75
2022/06/26 12:52:49;;;;;;;8.90;2.38;;;24.00;89.90;;;;;;4991127;28;20054;-77
2022/06/26 12:55:16;;;;;;;9.25;2.00;;;24.20;89.70;;;;;;4971485;28;251792;-74
2022/06/26 12:57:42;;;;;;;9.20;2.30;;;24.20;88.10;;;;;;4970609;28;205363;-77
2022/06/26 13:00:09;;;;;;;10.15;2.47;;;24.20;88.70;;;;;;4981913;28;107040;-74
2022/06/26 13:02:37;;;;;;;7.43;2.25;;;24.00;86.50;;;;;;4952436;28;135340;-76